Sammamish, Washington
Current Conditions -  °F | °C
As of 11:53 PM on Friday 19 Dec 2014 (Local Time) from KRNT Reporting Station
Light Rain Light Rain  
Wind Chill: 44°   Ceiling: 4400
Heat Index: 46°   Visibility: 5mi
Dew Point: 39°   Wind: 5mph
Humidity: 76%   Direction: 120°ESE
Pressure: 29.87"   Gusts: NA
Location:  47.63°N, 122.03°W
Report Text: KRNT 200753Z AUTO 12004KT 5SM -RA OVC044 08/04 A2987 RMK AO2 RAB00 SLP120 P0002 T00780039 401110072
Loading
Personal Weather Stations






























Interactive Weather Map New forecast layout! Learn more

10-Day Weather Forecast

Advertisements
Track Severe Weather on mobile